Time,TemperatureF,DewpointF,PressureIn,WindDirection,WindDirectionDegrees,WindSpeedMPH,WindSpeedGustMPH,Humidity,HourlyPrecipIn,Conditions,Clouds,dailyrainin,SoftwareType,DateUTC
2013-11-09 00:01:00,38.0,29.4,30.16,SE,135,0.0,5.0,71,0.00,,,0.00,Weather View 32 v70,2013-11-09 05:01:00,
2013-11-09 00:06:00,38.0,29.4,30.16,SE,135,0.0,5.0,71,0.00,,,0.00,Weather View 32 v70,2013-11-09 05:06:00,
2013-11-09 00:11:00,38.0,29.4,30.16,SE,135,0.0,3.0,71,0.00,,,0.00,Weather View 32 v70,2013-11-09 05:11:00,
2013-11-09 00:16:00,38.0,29.4,30.15,SE,135,1.0,3.0,71,0.00,,,0.00,Weather View 32 v70,2013-11-09 05:16:00,
2013-11-09 00:21:00,38.0,29.1,30.15,SE,135,0.0,4.0,70,0.00,,,0.00,Weather View 32 v70,2013-11-09 05:21:00,
2013-11-09 00:26:00,38.0,29.1,30.15,SE,135,0.0,4.0,70,0.00,,,0.00,Weather View 32 v70,2013-11-09 05:26:00,
2013-11-09 00:31:00,38.0,29.8,30.15,SE,135,1.0,4.0,72,0.00,,,0.00,Weather View 32 v70,2013-11-09 05:31:00,
2013-11-09 00:36:00,38.0,29.8,30.14,SSE,157,2.0,4.0,72,0.00,,,0.00,Weather View 32 v70,2013-11-09 05:36:00,
2013-11-09 00:41:00,38.0,30.1,30.14,SSE,157,0.0,4.0,73,0.00,,,0.00,Weather View 32 v70,2013-11-09 05:41:00,
2013-11-09 00:46:00,38.0,30.4,30.14,SSE,157,2.0,4.0,74,0.00,,,0.00,Weather View 32 v70,2013-11-09 05:46:00,
2013-11-09 00:51:00,38.0,30.1,30.14,SE,135,2.0,5.0,73,0.00,,,0.00,Weather View 32 v70,2013-11-09 05:51:00,
2013-11-09 00:56:00,38.0,29.8,30.14,SE,135,1.0,5.0,72,0.00,,,0.00,Weather View 32 v70,2013-11-09 05:56:00,
2013-11-09 01:01:00,39.0,30.4,30.14,SE,135,3.0,5.0,71,0.00,,,0.00,Weather View 32 v70,2013-11-09 06:01:00,
2013-11-09 01:06:00,39.0,30.4,30.13,SSE,157,1.0,6.0,71,0.00,,,0.00,Weather View 32 v70,2013-11-09 06:06:00,
2013-11-09 01:12:00,39.0,30.0,30.13,South,180,2.0,6.0,70,0.00,,,0.00,Weather View 32 v70,2013-11-09 06:12:00,
2013-11-09 01:17:00,39.0,29.7,30.13,South,180,4.0,6.0,69,0.00,,,0.00,Weather View 32 v70,2013-11-09 06:17:00,
2013-11-09 01:22:00,39.0,29.7,30.14,SSE,157,1.0,6.0,69,0.00,,,0.00,Weather View 32 v70,2013-11-09 06:22:00,
2013-11-09 01:27:00,39.0,29.7,30.14,SSE,157,1.0,6.0,69,0.00,,,0.00,Weather View 32 v70,2013-11-09 06:27:00,
2013-11-09 01:32:00,38.0,29.1,30.14,SSE,157,0.0,6.0,70,0.00,,,0.00,Weather View 32 v70,2013-11-09 06:32:00,
2013-11-09 01:37:00,38.0,29.1,30.14,SSE,157,0.0,6.0,70,0.00,,,0.00,Weather View 32 v70,2013-11-09 06:37:00,
2013-11-09 01:42:00,38.0,29.8,30.14,SSE,157,1.0,6.0,72,0.00,,,0.00,Weather View 32 v70,2013-11-09 06:42:00,
2013-11-09 01:47:00,38.0,29.8,30.14,SSE,157,0.0,6.0,72,0.00,,,0.00,Weather View 32 v70,2013-11-09 06:47:00,
2013-11-09 01:52:00,37.0,29.5,30.13,SSE,157,0.0,6.0,74,0.00,,,0.00,Weather View 32 v70,2013-11-09 06:52:00,
2013-11-09 01:57:00,37.0,29.8,30.13,SSE,157,2.0,6.0,75,0.00,,,0.00,Weather View 32 v70,2013-11-09 06:57:00,
2013-11-09 02:02:00,37.0,29.8,30.13,SSE,157,1.0,6.0,75,0.00,,,0.00,Weather View 32 v70,2013-11-09 07:02:00,
2013-11-09 02:07:00,37.0,29.8,30.13,SSE,157,1.0,6.0,75,0.00,,,0.00,Weather View 32 v70,2013-11-09 07:07:00,
2013-11-09 02:12:00,38.0,30.4,30.13,SSE,157,1.0,6.0,74,0.00,,,0.00,Weather View 32 v70,2013-11-09 07:12:00,
2013-11-09 02:17:00,38.0,30.4,30.12,SSE,157,2.0,4.0,74,0.00,,,0.00,Weather View 32 v70,2013-11-09 07:17:00,
2013-11-09 02:22:00,38.0,30.1,30.13,SSE,157,0.0,4.0,73,0.00,,,0.00,Weather View 32 v70,2013-11-09 07:22:00,
2013-11-09 02:27:00,37.0,29.5,30.13,SSE,157,0.0,4.0,74,0.00,,,0.00,Weather View 32 v70,2013-11-09 07:27:00,
2013-11-09 02:32:00,37.0,29.5,30.13,SSE,157,0.0,4.0,74,0.00,,,0.00,Weather View 32 v70,2013-11-09 07:32:00,
2013-11-09 02:37:00,37.0,30.1,30.13,SSE,157,1.0,4.0,76,0.00,,,0.00,Weather View 32 v70,2013-11-09 07:37:00,
2013-11-09 02:41:00,37.0,31.1,30.12,SSE,157,1.0,4.0,79,0.00,,,0.00,Weather View 32 v70,2013-11-09 07:41:00,
2013-11-09 02:46:00,37.0,31.4,30.12,SSE,157,0.0,4.0,80,0.00,,,0.00,Weather View 32 v70,2013-11-09 07:46:00,
2013-11-09 02:51:00,36.0,31.0,30.12,SSE,157,2.0,4.0,82,0.00,,,0.00,Weather View 32 v70,2013-11-09 07:51:00,
2013-11-09 02:56:00,36.0,30.7,30.12,SSE,157,2.0,4.0,81,0.00,,,0.00,Weather View 32 v70,2013-11-09 07:56:00,
2013-11-09 03:01:00,37.0,31.7,30.12,SSE,157,2.0,5.0,81,0.00,,,0.00,Weather View 32 v70,2013-11-09 08:01:00,
2013-11-09 03:06:00,37.0,31.1,30.11,South,180,2.0,6.0,79,0.00,,,0.00,Weather View 32 v70,2013-11-09 08:06:00,
2013-11-09 03:11:00,37.0,31.1,30.10,SSE,157,2.0,6.0,79,0.00,,,0.00,Weather View 32 v70,2013-11-09 08:11:00,
2013-11-09 03:16:00,37.0,30.8,30.10,SSE,157,2.0,6.0,78,0.00,,,0.00,Weather View 32 v70,2013-11-09 08:16:00,
2013-11-09 03:21:00,37.0,30.5,30.10,SSE,157,2.0,6.0,77,0.00,,,0.00,Weather View 32 v70,2013-11-09 08:21:00,
2013-11-09 03:26:00,37.0,30.1,30.10,SSE,157,1.0,6.0,76,0.00,,,0.00,Weather View 32 v70,2013-11-09 08:26:00,
2013-11-09 03:31:00,37.0,30.1,30.10,SSE,157,2.0,6.0,76,0.00,,,0.00,Weather View 32 v70,2013-11-09 08:31:00,
2013-11-09 03:36:00,37.0,30.1,30.10,SSE,157,1.0,6.0,76,0.00,,,0.00,Weather View 32 v70,2013-11-09 08:36:00,
2013-11-09 03:41:00,37.0,30.5,30.10,SSE,157,2.0,6.0,77,0.00,,,0.00,Weather View 32 v70,2013-11-09 08:41:00,
2013-11-09 03:46:00,37.0,31.1,30.10,SSE,157,2.0,6.0,79,0.00,,,0.00,Weather View 32 v70,2013-11-09 08:46:00,
2013-11-09 03:51:00,37.0,30.5,30.10,SSE,157,0.0,6.0,77,0.00,,,0.00,Weather View 32 v70,2013-11-09 08:51:00,
2013-11-09 03:56:00,37.0,30.5,30.10,South,180,2.0,6.0,77,0.00,,,0.00,Weather View 32 v70,2013-11-09 08:56:00,
2013-11-09 04:02:00,37.0,30.8,30.10,South,180,1.0,6.0,78,0.00,,,0.00,Weather View 32 v70,2013-11-09 09:02:00,
2013-11-09 04:07:00,37.0,30.5,30.10,South,180,2.0,6.0,77,0.00,,,0.00,Weather View 32 v70,2013-11-09 09:07:00,
2013-11-09 04:12:00,37.0,30.8,30.09,South,180,2.0,6.0,78,0.00,,,0.00,Weather View 32 v70,2013-11-09 09:12:00,
2013-11-09 04:17:00,37.0,31.1,30.09,South,180,0.0,6.0,79,0.00,,,0.00,Weather View 32 v70,2013-11-09 09:17:00,
2013-11-09 04:22:00,37.0,30.5,30.09,SSE,157,2.0,6.0,77,0.00,,,0.00,Weather View 32 v70,2013-11-09 09:22:00,
2013-11-09 04:27:00,37.0,30.1,30.09,SSE,157,2.0,6.0,76,0.00,,,0.00,Weather View 32 v70,2013-11-09 09:27:00,
2013-11-09 04:32:00,37.0,29.8,30.09,South,180,2.0,6.0,75,0.00,,,0.00,Weather View 32 v70,2013-11-09 09:32:00,
2013-11-09 04:37:00,38.0,30.8,30.09,South,180,1.0,6.0,75,0.00,,,0.00,Weather View 32 v70,2013-11-09 09:37:00,
2013-11-09 04:42:00,37.0,29.8,30.09,South,180,0.0,6.0,75,0.00,,,0.00,Weather View 32 v70,2013-11-09 09:42:00,
2013-11-09 04:47:00,37.0,29.5,30.09,South,180,1.0,6.0,74,0.00,,,0.00,Weather View 32 v70,2013-11-09 09:47:00,
2013-11-09 04:52:00,38.0,30.4,30.09,South,180,0.0,6.0,74,0.00,,,0.00,Weather View 32 v70,2013-11-09 09:52:00,
2013-11-09 04:57:00,38.0,30.4,30.09,South,180,2.0,5.0,74,0.00,,,0.00,Weather View 32 v70,2013-11-09 09:57:00,
2013-11-09 05:02:00,38.0,29.4,30.09,SSE,157,2.0,5.0,71,0.00,,,0.00,Weather View 32 v70,2013-11-09 10:02:00,
2013-11-09 05:07:00,39.0,30.0,30.09,SSE,157,2.0,5.0,70,0.00,,,0.00,Weather View 32 v70,2013-11-09 10:07:00,
2013-11-09 05:12:00,38.0,29.1,30.09,SSE,157,1.0,5.0,70,0.00,,,0.00,Weather View 32 v70,2013-11-09 10:12:00,
2013-11-09 05:17:00,38.0,29.1,30.09,SSE,157,2.0,5.0,70,0.00,,,0.00,Weather View 32 v70,2013-11-09 10:17:00,
2013-11-09 05:22:00,39.0,29.7,30.09,SSE,157,1.0,5.0,69,0.00,,,0.00,Weather View 32 v70,2013-11-09 10:22:00,
2013-11-09 05:27:00,39.0,29.7,30.09,SSE,157,2.0,5.0,69,0.00,,,0.00,Weather View 32 v70,2013-11-09 10:27:00,
2013-11-09 05:32:00,39.0,29.7,30.09,SSE,157,1.0,5.0,69,0.00,,,0.00,Weather View 32 v70,2013-11-09 10:32:00,
2013-11-09 05:37:00,39.0,29.7,30.09,SSE,157,1.0,5.0,69,0.00,,,0.00,Weather View 32 v70,2013-11-09 10:37:00,
2013-11-09 05:42:00,39.0,29.7,30.09,SSE,157,2.0,5.0,69,0.00,,,0.00,Weather View 32 v70,2013-11-09 10:42:00,
2013-11-09 05:47:00,39.0,29.3,30.09,SSE,157,0.0,5.0,68,0.00,,,0.00,Weather View 32 v70,2013-11-09 10:47:00,
2013-11-09 05:52:00,39.0,29.3,30.09,SSE,157,1.0,5.0,68,0.00,,,0.00,Weather View 32 v70,2013-11-09 10:52:00,
2013-11-09 05:57:00,39.0,29.7,30.09,SSE,157,2.0,5.0,69,0.00,,,0.00,Weather View 32 v70,2013-11-09 10:57:00,
2013-11-09 06:02:00,39.0,29.7,30.08,SSE,157,1.0,5.0,69,0.00,,,0.00,Weather View 32 v70,2013-11-09 11:02:00,
2013-11-09 06:07:00,39.0,30.0,30.08,SSE,157,3.0,5.0,70,0.00,,,0.00,Weather View 32 v70,2013-11-09 11:07:00,
2013-11-09 06:12:00,39.0,29.7,30.07,SSE,157,2.0,7.0,69,0.00,,,0.00,Weather View 32 v70,2013-11-09 11:12:00,
2013-11-09 06:17:00,40.0,29.9,30.08,South,180,0.0,7.0,67,0.00,,,0.00,Weather View 32 v70,2013-11-09 11:17:00,
2013-11-09 06:22:00,40.0,29.5,30.08,SSE,157,1.0,7.0,66,0.00,,,0.00,Weather View 32 v70,2013-11-09 11:22:00,
2013-11-09 06:27:00,40.0,29.2,30.08,South,180,0.0,7.0,65,0.00,,,0.00,Weather View 32 v70,2013-11-09 11:27:00,
2013-11-09 06:32:00,40.0,29.2,30.08,South,180,0.0,7.0,65,0.00,,,0.00,Weather View 32 v70,2013-11-09 11:32:00,
2013-11-09 06:37:00,40.0,29.2,30.08,South,180,0.0,7.0,65,0.00,,,0.00,Weather View 32 v70,2013-11-09 11:37:00,
2013-11-09 06:42:00,40.0,29.2,30.09,South,180,0.0,7.0,65,0.00,,,0.00,Weather View 32 v70,2013-11-09 11:42:00,
2013-11-09 06:47:00,41.0,29.7,30.09,WSW,247,3.0,7.0,64,0.00,,,0.00,Weather View 32 v70,2013-11-09 11:47:00,
2013-11-09 06:52:00,41.0,29.4,30.09,SSW,202,0.0,9.0,63,0.00,,,0.00,Weather View 32 v70,2013-11-09 11:52:00,
2013-11-09 06:57:00,42.0,29.9,30.09,South,180,1.0,9.0,62,0.00,,,0.00,Weather View 32 v70,2013-11-09 11:57:00,
2013-11-09 07:02:00,42.0,29.9,30.09,South,180,0.0,9.0,62,0.00,,,0.00,Weather View 32 v70,2013-11-09 12:02:00,
2013-11-09 07:07:00,42.0,30.3,30.08,South,180,3.0,9.0,63,0.00,,,0.00,Weather View 32 v70,2013-11-09 12:07:00,
2013-11-09 07:12:00,42.0,29.9,30.08,South,180,0.0,9.0,62,0.00,,,0.00,Weather View 32 v70,2013-11-09 12:12:00,
2013-11-09 07:17:00,42.0,30.3,30.08,South,180,3.0,9.0,63,0.00,,,0.00,Weather View 32 v70,2013-11-09 12:17:00,
2013-11-09 07:22:00,42.0,30.3,30.08,South,180,1.0,9.0,63,0.00,,,0.00,Weather View 32 v70,2013-11-09 12:22:00,
2013-11-09 07:27:00,42.0,30.3,30.08,South,180,1.0,9.0,63,0.00,,,0.00,Weather View 32 v70,2013-11-09 12:27:00,
2013-11-09 07:32:00,42.0,30.3,30.08,South,180,2.0,9.0,63,0.00,,,0.00,Weather View 32 v70,2013-11-09 12:32:00,
2013-11-09 07:37:00,42.0,30.7,30.08,SSW,202,1.0,9.0,64,0.00,,,0.00,Weather View 32 v70,2013-11-09 12:37:00,
2013-11-09 07:42:00,43.0,31.6,30.08,SSW,202,1.0,9.0,64,0.00,,,0.00,Weather View 32 v70,2013-11-09 12:42:00,
2013-11-09 07:47:00,43.0,32.0,30.07,South,180,1.0,9.0,65,0.00,,,0.00,Weather View 32 v70,2013-11-09 12:47:00,
2013-11-09 07:52:00,43.0,32.8,30.07,South,180,1.0,9.0,67,0.00,,,0.00,Weather View 32 v70,2013-11-09 12:52:00,
2013-11-09 07:57:00,44.0,33.4,30.07,SSE,157,3.0,9.0,66,0.00,,,0.00,Weather View 32 v70,2013-11-09 12:57:00,
2013-11-09 08:02:00,44.0,33.4,30.08,South,180,2.0,9.0,66,0.00,,,0.00,Weather View 32 v70,2013-11-09 13:02:00,
2013-11-09 08:07:00,45.0,33.9,30.08,South,180,1.0,12.0,65,0.00,,,0.00,Weather View 32 v70,2013-11-09 13:07:00,
2013-11-09 08:12:00,46.0,34.5,30.08,SW,225,0.0,12.0,64,0.00,,,0.00,Weather View 32 v70,2013-11-09 13:12:00,
2013-11-09 08:17:00,46.0,34.5,30.09,SSW,202,3.0,12.0,64,0.00,,,0.00,Weather View 32 v70,2013-11-09 13:17:00,
2013-11-09 08:22:00,47.0,35.0,30.09,SSE,157,3.0,12.0,63,0.00,,,0.00,Weather View 32 v70,2013-11-09 13:22:00,
2013-11-09 08:27:00,47.0,34.2,30.09,SSW,202,3.0,12.0,61,0.00,,,0.00,Weather View 32 v70,2013-11-09 13:27:00,
2013-11-09 08:32:00,48.0,35.2,30.09,South,180,4.0,13.0,61,0.00,,,0.00,Weather View 32 v70,2013-11-09 13:32:00,
2013-11-09 08:37:00,48.0,36.0,30.10,WSW,247,2.0,13.0,63,0.00,,,0.00,Weather View 32 v70,2013-11-09 13:37:00,
2013-11-09 08:42:00,49.0,36.9,30.10,SW,225,4.0,13.0,63,0.00,,,0.00,Weather View 32 v70,2013-11-09 13:42:00,
2013-11-09 08:47:00,50.0,37.5,30.11,SW,225,3.0,13.0,62,0.00,,,0.00,Weather View 32 v70,2013-11-09 13:47:00,
2013-11-09 08:52:00,50.0,37.1,30.11,South,180,3.0,13.0,61,0.00,,,0.00,Weather View 32 v70,2013-11-09 13:52:00,
2013-11-09 08:57:00,51.0,37.2,30.11,SSW,202,2.0,13.0,59,0.00,,,0.00,Weather View 32 v70,2013-11-09 13:57:00,
2013-11-09 09:02:00,51.0,37.2,30.11,WSW,247,3.0,13.0,59,0.00,,,0.00,Weather View 32 v70,2013-11-09 14:02:00,
2013-11-09 09:07:00,52.0,38.1,30.12,WSW,247,0.0,13.0,59,0.00,,,0.00,Weather View 32 v70,2013-11-09 14:07:00,
2013-11-09 09:12:00,52.0,38.1,30.12,WSW,247,2.0,13.0,59,0.00,,,0.00,Weather View 32 v70,2013-11-09 14:12:00,
2013-11-09 09:17:00,53.0,37.7,30.12,WSW,247,1.0,13.0,56,0.00,,,0.00,Weather View 32 v70,2013-11-09 14:17:00,
2013-11-09 09:22:00,54.0,38.6,30.12,WSW,247,1.0,13.0,56,0.00,,,0.00,Weather View 32 v70,2013-11-09 14:22:00,
2013-11-09 09:27:00,54.0,38.2,30.12,SW,225,4.0,13.0,55,0.00,,,0.00,Weather View 32 v70,2013-11-09 14:27:00,
2013-11-09 09:32:00,55.0,39.6,30.12,SW,225,3.0,9.0,56,0.00,,,0.00,Weather View 32 v70,2013-11-09 14:32:00,
2013-11-09 09:37:00,55.0,38.6,30.12,West,270,1.0,9.0,54,0.00,,,0.00,Weather View 32 v70,2013-11-09 14:37:00,
2013-11-09 09:42:00,56.0,39.1,30.12,WSW,247,7.0,10.0,53,0.00,,,0.00,Weather View 32 v70,2013-11-09 14:42:00,
2013-11-09 09:47:00,56.0,39.6,30.12,South,180,7.0,14.0,54,0.01,,,0.01,Weather View 32 v70,2013-11-09 14:47:00,
2013-11-09 09:52:00,56.0,39.1,30.12,SW,225,3.0,14.0,53,0.01,,,0.01,Weather View 32 v70,2013-11-09 14:52:00,
2013-11-09 09:57:00,56.0,38.1,30.13,South,180,4.0,14.0,51,0.01,,,0.01,Weather View 32 v70,2013-11-09 14:57:00,
2013-11-09 10:02:00,56.0,38.1,30.13,SW,225,3.0,14.0,51,0.01,,,0.01,Weather View 32 v70,2013-11-09 15:02:00,
2013-11-09 10:07:00,57.0,39.0,30.13,SE,135,6.0,14.0,51,0.01,,,0.01,Weather View 32 v70,2013-11-09 15:07:00,
2013-11-09 10:12:00,57.0,39.0,30.12,SW,225,4.0,15.0,51,0.01,,,0.01,Weather View 32 v70,2013-11-09 15:12:00,
2013-11-09 10:17:00,57.0,38.5,30.13,SW,225,3.0,15.0,50,0.01,,,0.01,Weather View 32 v70,2013-11-09 15:17:00,
2013-11-09 10:22:00,58.0,39.4,30.12,West,270,6.0,15.0,50,0.01,,,0.01,Weather View 32 v70,2013-11-09 15:22:00,
2013-11-09 10:27:00,58.0,39.4,30.12,SW,225,6.0,15.0,50,0.01,,,0.01,Weather View 32 v70,2013-11-09 15:27:00,
2013-11-09 10:32:00,58.0,38.9,30.13,WNW,292,1.0,15.0,49,0.01,,,0.01,Weather View 32 v70,2013-11-09 15:32:00,
2013-11-09 10:37:00,58.0,38.4,30.13,SW,225,4.0,15.0,48,0.01,,,0.01,Weather View 32 v70,2013-11-09 15:37:00,
2013-11-09 10:42:00,59.0,39.3,30.13,SSE,157,3.0,15.0,48,0.01,,,0.01,Weather View 32 v70,2013-11-09 15:42:00,
2013-11-09 10:47:00,59.0,38.8,30.13,WSW,247,2.0,15.0,47,0.00,,,0.01,Weather View 32 v70,2013-11-09 15:47:00,
2013-11-09 10:52:00,59.0,38.2,30.13,WNW,292,5.0,15.0,46,0.00,,,0.01,Weather View 32 v70,2013-11-09 15:52:00,
2013-11-09 10:57:00,59.0,38.2,30.13,SW,225,5.0,15.0,46,0.00,,,0.01,Weather View 32 v70,2013-11-09 15:57:00,
2013-11-09 11:02:00,58.0,37.8,30.13,SSW,202,5.0,15.0,47,0.00,,,0.01,Weather View 32 v70,2013-11-09 16:02:00,
2013-11-09 11:07:00,59.0,39.3,30.12,South,180,4.0,15.0,48,0.00,,,0.01,Weather View 32 v70,2013-11-09 16:07:00,
2013-11-09 11:12:00,59.0,38.2,30.12,South,180,6.0,13.0,46,0.00,,,0.01,Weather View 32 v70,2013-11-09 16:12:00,
2013-11-09 11:17:00,59.0,39.3,30.12,NNW,337,17.0,17.0,48,0.00,,,0.01,Weather View 32 v70,2013-11-09 16:17:00,
2013-11-09 11:22:00,60.0,39.1,30.12,WSW,247,3.0,17.0,46,0.00,,,0.01,Weather View 32 v70,2013-11-09 16:22:00,
2013-11-09 11:27:00,60.0,38.5,30.12,SSW,202,4.0,17.0,45,0.00,,,0.01,Weather View 32 v70,2013-11-09 16:27:00,
2013-11-09 11:32:00,60.0,38.5,30.12,South,180,6.0,17.0,45,0.00,,,0.01,Weather View 32 v70,2013-11-09 16:32:00,
2013-11-09 11:37:00,60.0,40.2,30.12,West,270,15.0,17.0,48,0.00,,,0.01,Weather View 32 v70,2013-11-09 16:37:00,
2013-11-09 11:42:00,60.0,39.1,30.12,South,180,6.0,17.0,46,0.00,,,0.01,Weather View 32 v70,2013-11-09 16:42:00,
2013-11-09 11:47:00,60.0,38.5,30.12,WNW,292,2.0,17.0,45,0.00,,,0.01,Weather View 32 v70,2013-11-09 16:47:00,
2013-11-09 11:52:00,60.0,38.5,30.12,South,180,1.0,17.0,45,0.00,,,0.01,Weather View 32 v70,2013-11-09 16:52:00,
2013-11-09 11:57:00,61.0,39.5,30.12,SW,225,1.0,17.0,45,0.00,,,0.01,Weather View 32 v70,2013-11-09 16:57:00,
2013-11-09 12:02:00,61.0,38.9,30.11,SW,225,1.0,17.0,44,0.00,,,0.01,Weather View 32 v70,2013-11-09 17:02:00,
2013-11-09 12:07:00,61.0,39.5,30.12,West,270,8.0,17.0,45,0.00,,,0.01,Weather View 32 v70,2013-11-09 17:07:00,
2013-11-09 12:12:00,61.0,39.5,30.12,WNW,292,6.0,17.0,45,0.00,,,0.01,Weather View 32 v70,2013-11-09 17:12:00,
2013-11-09 12:17:00,61.0,39.5,30.12,WSW,247,4.0,17.0,45,0.00,,,0.01,Weather View 32 v70,2013-11-09 17:17:00,
2013-11-09 12:22:00,61.0,40.6,30.11,WNW,292,9.0,17.0,47,0.00,,,0.01,Weather View 32 v70,2013-11-09 17:22:00,
2013-11-09 12:27:00,61.0,40.0,30.11,WNW,292,7.0,17.0,46,0.00,,,0.01,Weather View 32 v70,2013-11-09 17:27:00,
2013-11-09 12:32:00,61.0,39.5,30.11,WSW,247,3.0,17.0,45,0.00,,,0.01,Weather View 32 v70,2013-11-09 17:32:00,
2013-11-09 12:37:00,61.0,39.5,30.11,WSW,247,10.0,17.0,45,0.00,,,0.01,Weather View 32 v70,2013-11-09 17:37:00,
2013-11-09 12:42:00,62.0,40.4,30.11,West,270,3.0,17.0,45,0.00,,,0.01,Weather View 32 v70,2013-11-09 17:42:00,
2013-11-09 12:47:00,62.0,40.4,30.10,West,270,3.0,17.0,45,0.00,,,0.01,Weather View 32 v70,2013-11-09 17:47:00,
2013-11-09 12:52:00,62.0,40.4,30.10,West,270,8.0,17.0,45,0.00,,,0.01,Weather View 32 v70,2013-11-09 17:52:00,
2013-11-09 12:57:00,62.0,40.4,30.10,SSE,157,6.0,17.0,45,0.00,,,0.01,Weather View 32 v70,2013-11-09 17:57:00,
2013-11-09 13:02:00,62.0,40.9,30.10,NNW,337,1.0,17.0,46,0.00,,,0.01,Weather View 32 v70,2013-11-09 18:02:00,
2013-11-09 13:07:00,62.0,40.4,30.09,West,270,6.0,17.0,45,0.00,,,0.01,Weather View 32 v70,2013-11-09 18:07:00,
2013-11-09 13:12:00,63.0,41.3,30.09,WSW,247,7.0,17.0,45,0.00,,,0.01,Weather View 32 v70,2013-11-09 18:12:00,
2013-11-09 13:17:00,63.0,41.8,30.09,West,270,7.0,17.0,46,0.00,,,0.01,Weather View 32 v70,2013-11-09 18:17:00,
2013-11-09 13:22:00,62.0,40.4,30.09,South,180,4.0,17.0,45,0.00,,,0.01,Weather View 32 v70,2013-11-09 18:22:00,
2013-11-09 13:27:00,63.0,41.3,30.09,SW,225,2.0,15.0,45,0.00,,,0.01,Weather View 32 v70,2013-11-09 18:27:00,
2013-11-09 13:32:00,63.0,41.8,30.09,West,270,8.0,15.0,46,0.00,,,0.01,Weather View 32 v70,2013-11-09 18:32:00,
2013-11-09 13:37:00,63.0,41.3,30.08,SW,225,2.0,15.0,45,0.00,,,0.01,Weather View 32 v70,2013-11-09 18:37:00,
2013-11-09 13:42:00,63.0,41.3,30.08,SSW,202,2.0,15.0,45,0.00,,,0.01,Weather View 32 v70,2013-11-09 18:42:00,
2013-11-09 13:47:00,63.0,41.3,30.08,South,180,7.0,15.0,45,0.00,,,0.01,Weather View 32 v70,2013-11-09 18:47:00,
2013-11-09 13:52:00,63.0,40.7,30.08,West,270,7.0,15.0,44,0.00,,,0.01,Weather View 32 v70,2013-11-09 18:52:00,
2013-11-09 13:57:00,64.0,42.2,30.08,WSW,247,2.0,15.0,45,0.00,,,0.01,Weather View 32 v70,2013-11-09 18:57:00,
2013-11-09 14:02:00,64.0,41.6,30.08,South,180,7.0,15.0,44,0.00,,,0.01,Weather View 32 v70,2013-11-09 19:02:00,
2013-11-09 14:07:00,64.0,41.6,30.08,SW,225,4.0,15.0,44,0.00,,,0.01,Weather View 32 v70,2013-11-09 19:07:00,
2013-11-09 14:12:00,64.0,42.2,30.09,SSE,157,0.0,15.0,45,0.00,,,0.01,Weather View 32 v70,2013-11-09 19:12:00,
2013-11-09 14:17:00,65.0,41.3,30.09,SW,225,6.0,15.0,42,0.00,,,0.01,Weather View 32 v70,2013-11-09 19:17:00,
2013-11-09 14:22:00,64.0,40.4,30.09,SE,135,3.0,15.0,42,0.00,,,0.01,Weather View 32 v70,2013-11-09 19:22:00,
2013-11-09 14:27:00,64.0,41.0,30.08,SW,225,4.0,12.0,43,0.00,,,0.01,Weather View 32 v70,2013-11-09 19:27:00,
2013-11-09 14:32:00,64.0,41.0,30.09,SW,225,6.0,12.0,43,0.00,,,0.01,Weather View 32 v70,2013-11-09 19:32:00,
2013-11-09 14:37:00,64.0,41.6,30.08,SSE,157,5.0,13.0,44,0.00,,,0.01,Weather View 32 v70,2013-11-09 19:37:00,
2013-11-09 14:42:00,64.0,41.6,30.09,SSE,157,4.0,13.0,44,0.00,,,0.01,Weather View 32 v70,2013-11-09 19:42:00,
2013-11-09 14:47:00,63.0,41.3,30.08,NW,315,6.0,13.0,45,0.00,,,0.01,Weather View 32 v70,2013-11-09 19:47:00,
2013-11-09 14:52:00,63.0,41.8,30.08,West,270,3.0,13.0,46,0.00,,,0.01,Weather View 32 v70,2013-11-09 19:52:00,
2013-11-09 14:57:00,64.0,42.8,30.08,SW,225,7.0,13.0,46,0.00,,,0.01,Weather View 32 v70,2013-11-09 19:57:00,
2013-11-09 15:02:00,64.0,42.2,30.08,South,180,0.0,13.0,45,0.00,,,0.01,Weather View 32 v70,2013-11-09 20:02:00,
2013-11-09 15:07:00,64.0,42.2,30.07,SW,225,6.0,13.0,45,0.00,,,0.01,Weather View 32 v70,2013-11-09 20:07:00,
2013-11-09 15:12:00,64.0,42.2,30.07,West,270,3.0,13.0,45,0.00,,,0.01,Weather View 32 v70,2013-11-09 20:12:00,
2013-11-09 15:17:00,64.0,41.6,30.07,West,270,4.0,13.0,44,0.00,,,0.01,Weather View 32 v70,2013-11-09 20:17:00,
2013-11-09 15:22:00,64.0,41.6,30.07,SSW,202,5.0,15.0,44,0.00,,,0.01,Weather View 32 v70,2013-11-09 20:22:00,
2013-11-09 15:27:00,63.0,41.3,30.07,WSW,247,4.0,15.0,45,0.00,,,0.01,Weather View 32 v70,2013-11-09 20:27:00,
2013-11-09 15:32:00,64.0,42.2,30.07,WSW,247,5.0,15.0,45,0.00,,,0.01,Weather View 32 v70,2013-11-09 20:32:00,
2013-11-09 15:37:00,64.0,41.6,30.07,SW,225,3.0,15.0,44,0.00,,,0.01,Weather View 32 v70,2013-11-09 20:37:00,
2013-11-09 15:42:00,64.0,41.6,30.07,West,270,5.0,15.0,44,0.00,,,0.01,Weather View 32 v70,2013-11-09 20:42:00,
2013-11-09 15:47:00,63.0,41.3,30.07,SW,225,2.0,15.0,45,0.00,,,0.01,Weather View 32 v70,2013-11-09 20:47:00,
2013-11-09 15:52:00,63.0,41.3,30.07,West,270,4.0,15.0,45,0.00,,,0.01,Weather View 32 v70,2013-11-09 20:52:00,
2013-11-09 15:57:00,63.0,41.8,30.07,South,180,3.0,15.0,46,0.00,,,0.01,Weather View 32 v70,2013-11-09 20:57:00,
2013-11-09 16:02:00,63.0,41.8,30.07,WNW,292,7.0,15.0,46,0.00,,,0.01,Weather View 32 v70,2013-11-09 21:02:00,
2013-11-09 16:07:00,63.0,42.4,30.07,SW,225,3.0,15.0,47,0.00,,,0.01,Weather View 32 v70,2013-11-09 21:07:00,
2013-11-09 16:12:00,62.0,41.5,30.07,West,270,3.0,15.0,47,0.00,,,0.01,Weather View 32 v70,2013-11-09 21:12:00,
2013-11-09 16:17:00,62.0,41.5,30.07,WSW,247,3.0,15.0,47,0.00,,,0.01,Weather View 32 v70,2013-11-09 21:17:00,
2013-11-09 16:22:00,62.0,41.5,30.07,SW,225,6.0,11.0,47,0.00,,,0.01,Weather View 32 v70,2013-11-09 21:22:00,
2013-11-09 16:27:00,62.0,41.5,30.07,SW,225,5.0,11.0,47,0.00,,,0.01,Weather View 32 v70,2013-11-09 21:27:00,
2013-11-09 16:32:00,62.0,42.0,30.07,NW,315,2.0,11.0,48,0.00,,,0.01,Weather View 32 v70,2013-11-09 21:32:00,
2013-11-09 16:37:00,62.0,42.0,30.07,WNW,292,1.0,11.0,48,0.00,,,0.01,Weather View 32 v70,2013-11-09 21:37:00,
2013-11-09 16:42:00,62.0,42.6,30.07,West,270,6.0,11.0,49,0.00,,,0.01,Weather View 32 v70,2013-11-09 21:42:00,
2013-11-09 16:47:00,61.0,41.7,30.07,West,270,4.0,11.0,49,0.00,,,0.01,Weather View 32 v70,2013-11-09 21:47:00,
2013-11-09 16:52:00,61.0,41.7,30.07,West,270,6.0,10.0,49,0.00,,,0.01,Weather View 32 v70,2013-11-09 21:52:00,
2013-11-09 16:57:00,61.0,42.2,30.07,SW,225,3.0,10.0,50,0.00,,,0.01,Weather View 32 v70,2013-11-09 21:57:00,
2013-11-09 17:02:00,61.0,42.7,30.07,SW,225,1.0,10.0,51,0.00,,,0.01,Weather View 32 v70,2013-11-09 22:02:00,
2013-11-09 17:07:00,61.0,42.2,30.07,West,270,1.0,10.0,50,0.00,,,0.01,Weather View 32 v70,2013-11-09 22:07:00,
2013-11-09 17:12:00,60.0,41.8,30.07,West,270,7.0,10.0,51,0.00,,,0.01,Weather View 32 v70,2013-11-09 22:12:00,
2013-11-09 17:17:00,60.0,42.3,30.07,SW,225,3.0,10.0,52,0.00,,,0.01,Weather View 32 v70,2013-11-09 22:17:00,
2013-11-09 17:22:00,60.0,41.8,30.07,WSW,247,1.0,10.0,51,0.00,,,0.01,Weather View 32 v70,2013-11-09 22:22:00,
2013-11-09 17:27:00,59.0,40.9,30.07,SW,225,2.0,10.0,51,0.00,,,0.01,Weather View 32 v70,2013-11-09 22:27:00,
2013-11-09 17:32:00,59.0,41.9,30.07,West,270,0.0,10.0,53,0.00,,,0.01,Weather View 32 v70,2013-11-09 22:32:00,
2013-11-09 17:37:00,59.0,41.9,30.07,SW,225,2.0,10.0,53,0.00,,,0.01,Weather View 32 v70,2013-11-09 22:37:00,
2013-11-09 17:42:00,59.0,41.9,30.07,West,270,1.0,10.0,53,0.00,,,0.01,Weather View 32 v70,2013-11-09 22:42:00,
2013-11-09 17:47:00,58.0,41.4,30.07,West,270,6.0,10.0,54,0.00,,,0.01,Weather View 32 v70,2013-11-09 22:47:00,
2013-11-09 17:52:00,58.0,41.4,30.07,West,270,2.0,10.0,54,0.00,,,0.01,Weather View 32 v70,2013-11-09 22:52:00,
2013-11-09 17:57:00,58.0,41.9,30.07,WSW,247,2.0,10.0,55,0.00,,,0.01,Weather View 32 v70,2013-11-09 22:57:00,
2013-11-09 18:02:00,58.0,42.4,30.07,WSW,247,0.0,10.0,56,0.00,,,0.01,Weather View 32 v70,2013-11-09 23:02:00,
2013-11-09 18:07:00,57.0,41.4,30.07,SW,225,1.0,10.0,56,0.00,,,0.01,Weather View 32 v70,2013-11-09 23:07:00,
2013-11-09 18:12:00,57.0,41.9,30.07,South,180,3.0,9.0,57,0.00,,,0.01,Weather View 32 v70,2013-11-09 23:12:00,
2013-11-09 18:17:00,57.0,42.3,30.08,SW,225,0.0,8.0,58,0.00,,,0.01,Weather View 32 v70,2013-11-09 23:17:00,
2013-11-09 18:22:00,56.0,41.8,30.08,SW,225,0.0,7.0,59,0.00,,,0.01,Weather View 32 v70,2013-11-09 23:22:00,
2013-11-09 18:27:00,56.0,41.8,30.08,SSW,202,0.0,7.0,59,0.00,,,0.01,Weather View 32 v70,2013-11-09 23:27:00,
2013-11-09 18:32:00,56.0,42.7,30.08,SSW,202,0.0,7.0,61,0.00,,,0.01,Weather View 32 v70,2013-11-09 23:32:00,
2013-11-09 18:37:00,56.0,42.7,30.09,WSW,247,0.0,7.0,61,0.00,,,0.01,Weather View 32 v70,2013-11-09 23:37:00,
2013-11-09 18:42:00,55.0,42.2,30.09,WSW,247,1.0,7.0,62,0.00,,,0.01,Weather View 32 v70,2013-11-09 23:42:00,
2013-11-09 18:47:00,56.0,43.1,30.09,West,270,0.0,7.0,62,0.00,,,0.01,Weather View 32 v70,2013-11-09 23:47:00,
2013-11-09 18:52:00,55.0,42.2,30.09,West,270,0.0,7.0,62,0.00,,,0.01,Weather View 32 v70,2013-11-09 23:52:00,
2013-11-09 18:57:00,55.0,42.6,30.09,West,270,0.0,7.0,63,0.00,,,0.01,Weather View 32 v70,2013-11-09 23:57:00,
2013-11-09 19:02:00,54.0,42.1,30.09,West,270,0.0,7.0,64,0.00,,,0.01,Weather View 32 v70,2013-11-10 00:02:00,
2013-11-09 19:07:00,54.0,42.5,30.09,West,270,0.0,7.0,65,0.00,,,0.01,Weather View 32 v70,2013-11-10 00:07:00,
2013-11-09 19:12:00,53.0,41.9,30.09,West,270,0.0,7.0,66,0.00,,,0.01,Weather View 32 v70,2013-11-10 00:12:00,
2013-11-09 19:17:00,53.0,42.3,30.09,West,270,0.0,7.0,67,0.00,,,0.01,Weather View 32 v70,2013-11-10 00:17:00,
2013-11-09 19:22:00,53.0,42.3,30.09,West,270,0.0,7.0,67,0.00,,,0.01,Weather View 32 v70,2013-11-10 00:22:00,
2013-11-09 19:27:00,53.0,43.1,30.09,West,270,0.0,7.0,69,0.00,,,0.01,Weather View 32 v70,2013-11-10 00:27:00,
2013-11-09 19:32:00,53.0,43.5,30.09,SW,225,1.0,7.0,70,0.00,,,0.01,Weather View 32 v70,2013-11-10 00:32:00,
2013-11-09 19:37:00,53.0,43.5,30.09,SW,225,0.0,7.0,70,0.00,,,0.01,Weather View 32 v70,2013-11-10 00:37:00,
2013-11-09 19:42:00,53.0,43.5,30.09,SW,225,0.0,7.0,70,0.00,,,0.01,Weather View 32 v70,2013-11-10 00:42:00,
2013-11-09 19:47:00,53.0,43.5,30.09,SW,225,0.0,3.0,70,0.00,,,0.01,Weather View 32 v70,2013-11-10 00:47:00,
2013-11-09 19:52:00,53.0,43.8,30.09,SW,225,0.0,3.0,71,0.00,,,0.01,Weather View 32 v70,2013-11-10 00:52:00,
2013-11-09 19:57:00,52.0,43.2,30.09,SW,225,0.0,3.0,72,0.00,,,0.01,Weather View 32 v70,2013-11-10 00:57:00,
2013-11-09 20:02:00,52.0,43.2,30.10,SW,225,0.0,3.0,72,0.00,,,0.01,Weather View 32 v70,2013-11-10 01:02:00,
2013-11-09 20:07:00,52.0,43.6,30.10,SW,225,1.0,3.0,73,0.00,,,0.01,Weather View 32 v70,2013-11-10 01:07:00,
2013-11-09 20:12:00,52.0,43.6,30.10,SW,225,0.0,3.0,73,0.00,,,0.01,Weather View 32 v70,2013-11-10 01:12:00,
2013-11-09 20:17:00,53.0,44.6,30.10,SW,225,0.0,3.0,73,0.00,,,0.01,Weather View 32 v70,2013-11-10 01:17:00,
2013-11-09 20:22:00,53.0,44.2,30.10,SW,225,0.0,3.0,72,0.00,,,0.01,Weather View 32 v70,2013-11-10 01:22:00,
2013-11-09 20:27:00,53.0,44.6,30.10,SW,225,0.0,3.0,73,0.00,,,0.01,Weather View 32 v70,2013-11-10 01:27:00,
2013-11-09 20:32:00,53.0,44.6,30.10,WSW,247,0.0,3.0,73,0.00,,,0.01,Weather View 32 v70,2013-11-10 01:32:00,
2013-11-09 20:37:00,53.0,44.6,30.10,West,270,0.0,7.0,73,0.00,,,0.01,Weather View 32 v70,2013-11-10 01:37:00,
2013-11-09 20:42:00,53.0,44.2,30.10,West,270,2.0,7.0,72,0.00,,,0.01,Weather View 32 v70,2013-11-10 01:42:00,
2013-11-09 20:47:00,53.0,44.2,30.10,WNW,292,3.0,7.0,72,0.00,,,0.01,Weather View 32 v70,2013-11-10 01:47:00,
2013-11-09 20:52:00,53.0,44.2,30.10,West,270,0.0,7.0,72,0.00,,,0.01,Weather View 32 v70,2013-11-10 01:52:00,
2013-11-09 20:57:00,53.0,44.2,30.10,West,270,2.0,7.0,72,0.00,,,0.01,Weather View 32 v70,2013-11-10 01:57:00,
2013-11-09 21:02:00,53.0,44.2,30.11,West,270,0.0,7.0,72,0.00,,,0.01,Weather View 32 v70,2013-11-10 02:02:00,
2013-11-09 21:07:00,53.0,44.2,30.11,West,270,2.0,7.0,72,0.00,,,0.01,Weather View 32 v70,2013-11-10 02:07:00,
2013-11-09 21:12:00,53.0,44.6,30.11,SSW,202,2.0,7.0,73,0.00,,,0.01,Weather View 32 v70,2013-11-10 02:12:00,
2013-11-09 21:17:00,53.0,44.6,30.11,West,270,3.0,7.0,73,0.00,,,0.01,Weather View 32 v70,2013-11-10 02:17:00,
2013-11-09 21:22:00,53.0,44.6,30.11,West,270,4.0,10.0,73,0.00,,,0.01,Weather View 32 v70,2013-11-10 02:22:00,
2013-11-09 21:27:00,53.0,44.6,30.11,WNW,292,1.0,10.0,73,0.00,,,0.01,Weather View 32 v70,2013-11-10 02:27:00,
2013-11-09 21:32:00,54.0,45.2,30.11,West,270,0.0,10.0,72,0.00,,,0.01,Weather View 32 v70,2013-11-10 02:32:00,
2013-11-09 21:37:00,53.0,44.6,30.11,West,270,3.0,10.0,73,0.00,,,0.01,Weather View 32 v70,2013-11-10 02:37:00,
2013-11-09 21:42:00,53.0,44.9,30.12,West,270,1.0,10.0,74,0.00,,,0.01,Weather View 32 v70,2013-11-10 02:42:00,
2013-11-09 21:47:00,53.0,45.3,30.12,West,270,3.0,10.0,75,0.00,,,0.01,Weather View 32 v70,2013-11-10 02:47:00,
2013-11-09 21:52:00,53.0,45.3,30.12,West,270,1.0,10.0,75,0.00,,,0.01,Weather View 32 v70,2013-11-10 02:52:00,
2013-11-09 21:57:00,53.0,45.3,30.12,West,270,1.0,10.0,75,0.00,,,0.01,Weather View 32 v70,2013-11-10 02:57:00,
2013-11-09 22:02:00,53.0,45.3,30.12,West,270,0.0,10.0,75,0.00,,,0.01,Weather View 32 v70,2013-11-10 03:02:00,
2013-11-09 22:07:00,53.0,46.0,30.12,West,270,2.0,10.0,77,0.00,,,0.01,Weather View 32 v70,2013-11-10 03:07:00,
2013-11-09 22:12:00,53.0,46.3,30.12,West,270,2.0,10.0,78,0.00,,,0.01,Weather View 32 v70,2013-11-10 03:12:00,
2013-11-09 22:17:00,52.0,45.7,30.12,West,270,1.0,10.0,79,0.00,,,0.01,Weather View 32 v70,2013-11-10 03:17:00,
2013-11-09 22:22:00,53.0,47.0,30.12,West,270,1.0,7.0,80,0.00,,,0.01,Weather View 32 v70,2013-11-10 03:22:00,
2013-11-09 22:27:00,53.0,47.0,30.12,WNW,292,2.0,7.0,80,0.00,,,0.01,Weather View 32 v70,2013-11-10 03:27:00,
2013-11-09 22:32:00,53.0,47.6,30.12,WNW,292,4.0,7.0,82,0.00,,,0.01,Weather View 32 v70,2013-11-10 03:32:00,
2013-11-09 22:37:00,52.0,46.7,30.12,SW,225,1.0,7.0,82,0.00,,,0.01,Weather View 32 v70,2013-11-10 03:37:00,
2013-11-09 22:42:00,52.0,46.7,30.12,WNW,292,5.0,7.0,82,0.00,,,0.01,Weather View 32 v70,2013-11-10 03:42:00,
2013-11-09 22:47:00,52.0,47.0,30.13,West,270,3.0,7.0,83,0.00,,,0.01,Weather View 32 v70,2013-11-10 03:47:00,
2013-11-09 22:52:00,53.0,48.0,30.13,West,270,2.0,8.0,83,0.00,,,0.01,Weather View 32 v70,2013-11-10 03:52:00,
2013-11-09 22:57:00,53.0,48.0,30.13,West,270,3.0,8.0,83,0.00,,,0.01,Weather View 32 v70,2013-11-10 03:57:00,
2013-11-09 23:02:00,53.0,48.0,30.14,WNW,292,3.0,8.0,83,-0.01,,,0.00,Weather View 32 v70,2013-11-10 04:02:00,
2013-11-09 23:07:00,53.0,48.3,30.14,West,270,1.0,8.0,84,-0.01,,,0.00,Weather View 32 v70,2013-11-10 04:07:00,
2013-11-09 23:12:00,53.0,48.0,30.14,West,270,2.0,8.0,83,-0.01,,,0.00,Weather View 32 v70,2013-11-10 04:12:00,
2013-11-09 23:17:00,52.0,47.9,30.14,West,270,2.0,8.0,86,-0.01,,,0.00,Weather View 32 v70,2013-11-10 04:17:00,
2013-11-09 23:22:00,52.0,48.2,30.14,WSW,247,5.0,8.0,87,-0.01,,,0.00,Weather View 32 v70,2013-11-10 04:22:00,
2013-11-09 23:27:00,52.0,48.5,30.14,West,270,2.0,8.0,88,-0.01,,,0.00,Weather View 32 v70,2013-11-10 04:27:00,
2013-11-09 23:32:00,52.0,48.2,30.14,West,270,1.0,8.0,87,-0.01,,,0.00,Weather View 32 v70,2013-11-10 04:32:00,
2013-11-09 23:37:00,51.0,48.2,30.14,WNW,292,3.0,8.0,90,-0.01,,,0.00,Weather View 32 v70,2013-11-10 04:37:00,
2013-11-09 23:42:00,51.0,48.2,30.14,WNW,292,1.0,8.0,90,-0.01,,,0.00,Weather View 32 v70,2013-11-10 04:42:00,
2013-11-09 23:47:00,51.0,48.8,30.14,WNW,292,0.0,8.0,92,-0.01,,,0.00,Weather View 32 v70,2013-11-10 04:47:00,
2013-11-09 23:52:00,51.0,48.8,30.14,WNW,292,1.0,8.0,92,-0.01,,,0.00,Weather View 32 v70,2013-11-10 04:52:00,
2013-11-09 23:57:00,51.0,49.3,30.14,WNW,292,1.0,8.0,94,-0.01,,,0.00,Weather View 32 v70,2013-11-10 04:57:00,